sensor_id;sensor_type;location;lat;lon;timestamp;P1;durP1;ratioP1;P2;durP2;ratioP2
14858;SDS011;7521;51.700;6.874;2022-12-15T00:00:30;42.60;;;21.57;;
14858;SDS011;7521;51.700;6.874;2022-12-15T00:03:54;49.07;;;21.90;;
14858;SDS011;7521;51.700;6.874;2022-12-15T00:07:17;42.80;;;20.87;;
14858;SDS011;7521;51.700;6.874;2022-12-15T00:10:41;47.47;;;22.00;;
14858;SDS011;7521;51.700;6.874;2022-12-15T00:14:05;44.50;;;21.37;;
14858;SDS011;7521;51.700;6.874;2022-12-15T00:17:29;42.87;;;20.70;;
14858;SDS011;7521;51.700;6.874;2022-12-15T00:20:57;42.03;;;19.33;;
14858;SDS011;7521;51.700;6.874;2022-12-15T00:24:20;49.27;;;20.50;;
14858;SDS011;7521;51.700;6.874;2022-12-15T00:27:44;38.77;;;19.23;;
14858;SDS011;7521;51.700;6.874;2022-12-15T00:31:08;40.93;;;19.83;;
14858;SDS011;7521;51.700;6.874;2022-12-15T00:34:32;37.33;;;17.80;;
14858;SDS011;7521;51.700;6.874;2022-12-15T00:37:56;42.53;;;17.93;;
14858;SDS011;7521;51.700;6.874;2022-12-15T00:41:19;33.37;;;15.33;;
14858;SDS011;7521;51.700;6.874;2022-12-15T00:44:24;34.63;;;17.17;;
14858;SDS011;7521;51.700;6.874;2022-12-15T00:47:31;32.83;;;16.50;;
14858;SDS011;7521;51.700;6.874;2022-12-15T00:50:36;32.87;;;16.67;;
14858;SDS011;7521;51.700;6.874;2022-12-15T00:53:56;33.23;;;16.13;;
14858;SDS011;7521;51.700;6.874;2022-12-15T00:57:20;33.57;;;15.23;;
14858;SDS011;7521;51.700;6.874;2022-12-15T01:00:44;30.43;;;15.40;;
14858;SDS011;7521;51.700;6.874;2022-12-15T01:04:08;30.90;;;15.67;;
14858;SDS011;7521;51.700;6.874;2022-12-15T01:07:32;34.30;;;15.50;;
14858;SDS011;7521;51.700;6.874;2022-12-15T01:10:59;34.00;;;15.90;;
14858;SDS011;7521;51.700;6.874;2022-12-15T01:14:23;32.00;;;15.30;;
14858;SDS011;7521;51.700;6.874;2022-12-15T01:17:46;33.70;;;16.30;;
14858;SDS011;7521;51.700;6.874;2022-12-15T01:21:10;30.60;;;15.10;;
14858;SDS011;7521;51.700;6.874;2022-12-15T01:24:16;32.93;;;15.53;;
14858;SDS011;7521;51.700;6.874;2022-12-15T01:27:21;30.13;;;15.52;;
14858;SDS011;7521;51.700;6.874;2022-12-15T01:30:26;32.35;;;16.48;;
14858;SDS011;7521;51.700;6.874;2022-12-15T01:33:31;28.30;;;14.30;;
14858;SDS011;7521;51.700;6.874;2022-12-15T01:36:36;27.48;;;15.13;;
14858;SDS011;7521;51.700;6.874;2022-12-15T01:39:41;25.88;;;14.73;;
14858;SDS011;7521;51.700;6.874;2022-12-15T01:43:09;29.13;;;15.30;;
14858;SDS011;7521;51.700;6.874;2022-12-15T01:46:15;31.57;;;16.50;;
14858;SDS011;7521;51.700;6.874;2022-12-15T01:49:24;37.77;;;17.13;;
14858;SDS011;7521;51.700;6.874;2022-12-15T01:52:30;40.07;;;16.87;;
14858;SDS011;7521;51.700;6.874;2022-12-15T01:55:35;35.73;;;16.53;;
14858;SDS011;7521;51.700;6.874;2022-12-15T01:58:42;32.67;;;16.17;;
14858;SDS011;7521;51.700;6.874;2022-12-15T02:01:48;33.87;;;16.77;;
14858;SDS011;7521;51.700;6.874;2022-12-15T02:04:54;32.10;;;16.00;;
14858;SDS011;7521;51.700;6.874;2022-12-15T02:08:00;33.80;;;15.47;;
14858;SDS011;7521;51.700;6.874;2022-12-15T02:17:56;29.43;;;14.90;;
14858;SDS011;7521;51.700;6.874;2022-12-15T02:21:14;36.83;;;16.07;;
14858;SDS011;7521;51.700;6.874;2022-12-15T02:24:33;30.03;;;15.03;;
14858;SDS011;7521;51.700;6.874;2022-12-15T02:28:01;31.07;;;14.93;;
14858;SDS011;7521;51.700;6.874;2022-12-15T02:31:12;32.27;;;15.67;;
14858;SDS011;7521;51.700;6.874;2022-12-15T02:34:55;25.07;;;13.37;;
14858;SDS011;7521;51.700;6.874;2022-12-15T02:38:02;29.67;;;14.60;;
14858;SDS011;7521;51.700;6.874;2022-12-15T02:44:36;28.23;;;14.13;;
14858;SDS011;7521;51.700;6.874;2022-12-15T02:50:58;30.27;;;14.93;;
14858;SDS011;7521;51.700;6.874;2022-12-15T02:57:53;29.45;;;14.25;;
14858;SDS011;7521;51.700;6.874;2022-12-15T03:00:39;26.00;;;14.20;;
14858;SDS011;7521;51.700;6.874;2022-12-15T03:03:45;30.80;;;16.00;;
14858;SDS011;7521;51.700;6.874;2022-12-15T03:06:53;29.67;;;14.10;;
14858;SDS011;7521;51.700;6.874;2022-12-15T03:10:00;29.83;;;14.53;;
14858;SDS011;7521;51.700;6.874;2022-12-15T03:13:06;25.47;;;13.87;;
14858;SDS011;7521;51.700;6.874;2022-12-15T03:16:12;30.50;;;15.10;;
14858;SDS011;7521;51.700;6.874;2022-12-15T03:19:17;32.00;;;14.88;;
14858;SDS011;7521;51.700;6.874;2022-12-15T03:22:22;39.00;;;18.53;;
14858;SDS011;7521;51.700;6.874;2022-12-15T03:25:27;37.10;;;17.90;;
14858;SDS011;7521;51.700;6.874;2022-12-15T03:28:33;30.40;;;15.27;;
14858;SDS011;7521;51.700;6.874;2022-12-15T03:31:38;30.57;;;15.40;;
14858;SDS011;7521;51.700;6.874;2022-12-15T03:34:43;29.20;;;15.47;;
14858;SDS011;7521;51.700;6.874;2022-12-15T03:37:49;29.93;;;15.13;;
14858;SDS011;7521;51.700;6.874;2022-12-15T03:40:54;29.27;;;14.70;;
14858;SDS011;7521;51.700;6.874;2022-12-15T03:43:59;28.80;;;14.82;;
14858;SDS011;7521;51.700;6.874;2022-12-15T03:47:04;27.07;;;14.97;;
14858;SDS011;7521;51.700;6.874;2022-12-15T03:50:10;26.58;;;14.13;;
14858;SDS011;7521;51.700;6.874;2022-12-15T03:53:15;31.70;;;14.37;;
14858;SDS011;7521;51.700;6.874;2022-12-15T03:56:20;27.10;;;14.90;;
14858;SDS011;7521;51.700;6.874;2022-12-15T03:59:25;29.60;;;14.82;;
14858;SDS011;7521;51.700;6.874;2022-12-15T04:02:31;28.48;;;14.82;;
14858;SDS011;7521;51.700;6.874;2022-12-15T04:05:36;28.60;;;14.68;;
14858;SDS011;7521;51.700;6.874;2022-12-15T04:08:41;29.27;;;14.13;;
14858;SDS011;7521;51.700;6.874;2022-12-15T04:11:46;28.23;;;14.60;;
14858;SDS011;7521;51.700;6.874;2022-12-15T04:14:51;27.60;;;14.50;;
14858;SDS011;7521;51.700;6.874;2022-12-15T04:17:59;32.40;;;15.07;;
14858;SDS011;7521;51.700;6.874;2022-12-15T04:21:04;28.77;;;15.60;;
14858;SDS011;7521;51.700;6.874;2022-12-15T04:24:09;27.83;;;14.00;;
14858;SDS011;7521;51.700;6.874;2022-12-15T04:27:33;33.57;;;15.27;;
14858;SDS011;7521;51.700;6.874;2022-12-15T04:31:01;31.00;;;15.37;;
14858;SDS011;7521;51.700;6.874;2022-12-15T04:34:25;28.83;;;15.13;;
14858;SDS011;7521;51.700;6.874;2022-12-15T04:37:49;37.80;;;15.57;;
14858;SDS011;7521;51.700;6.874;2022-12-15T04:41:13;32.40;;;16.50;;
14858;SDS011;7521;51.700;6.874;2022-12-15T04:44:37;30.23;;;15.50;;
14858;SDS011;7521;51.700;6.874;2022-12-15T04:48:01;30.67;;;16.27;;
14858;SDS011;7521;51.700;6.874;2022-12-15T04:51:25;29.03;;;16.00;;
14858;SDS011;7521;51.700;6.874;2022-12-15T04:54:48;36.47;;;16.03;;
14858;SDS011;7521;51.700;6.874;2022-12-15T04:58:12;33.47;;;17.63;;
14858;SDS011;7521;51.700;6.874;2022-12-15T05:01:36;36.43;;;16.17;;
14858;SDS011;7521;51.700;6.874;2022-12-15T05:05:00;37.43;;;17.73;;
14858;SDS011;7521;51.700;6.874;2022-12-15T05:08:24;38.73;;;18.53;;
14858;SDS011;7521;51.700;6.874;2022-12-15T05:11:48;37.27;;;18.40;;
14858;SDS011;7521;51.700;6.874;2022-12-15T05:15:12;39.10;;;17.80;;
14858;SDS011;7521;51.700;6.874;2022-12-15T05:18:36;38.60;;;18.53;;
14858;SDS011;7521;51.700;6.874;2022-12-15T05:22:00;38.47;;;19.00;;
14858;SDS011;7521;51.700;6.874;2022-12-15T05:25:24;34.77;;;19.13;;
14858;SDS011;7521;51.700;6.874;2022-12-15T05:28:48;38.30;;;19.73;;
14858;SDS011;7521;51.700;6.874;2022-12-15T05:32:11;41.93;;;20.40;;
14858;SDS011;7521;51.700;6.874;2022-12-15T05:35:17;44.60;;;21.30;;
14858;SDS011;7521;51.700;6.874;2022-12-15T05:38:22;44.67;;;21.02;;
14858;SDS011;7521;51.700;6.874;2022-12-15T05:41:27;39.30;;;20.40;;
14858;SDS011;7521;51.700;6.874;2022-12-15T05:44:32;44.23;;;20.30;;
14858;SDS011;7521;51.700;6.874;2022-12-15T05:47:38;41.30;;;21.77;;
14858;SDS011;7521;51.700;6.874;2022-12-15T05:50:43;41.90;;;21.38;;
14858;SDS011;7521;51.700;6.874;2022-12-15T05:53:48;40.27;;;21.73;;
14858;SDS011;7521;51.700;6.874;2022-12-15T05:56:53;46.38;;;22.08;;
14858;SDS011;7521;51.700;6.874;2022-12-15T05:59:59;40.77;;;20.37;;
14858;SDS011;7521;51.700;6.874;2022-12-15T06:03:04;44.83;;;22.77;;
14858;SDS011;7521;51.700;6.874;2022-12-15T06:06:09;44.67;;;22.55;;
14858;SDS011;7521;51.700;6.874;2022-12-15T06:09:15;45.13;;;23.60;;
14858;SDS011;7521;51.700;6.874;2022-12-15T06:12:20;47.55;;;23.40;;
14858;SDS011;7521;51.700;6.874;2022-12-15T06:15:25;42.90;;;22.92;;
14858;SDS011;7521;51.700;6.874;2022-12-15T06:18:32;48.53;;;24.50;;
14858;SDS011;7521;51.700;6.874;2022-12-15T06:21:37;48.70;;;24.77;;
14858;SDS011;7521;51.700;6.874;2022-12-15T06:24:42;44.78;;;23.27;;
14858;SDS011;7521;51.700;6.874;2022-12-15T06:27:48;47.42;;;23.92;;
14858;SDS011;7521;51.700;6.874;2022-12-15T06:30:54;46.25;;;23.10;;
14858;SDS011;7521;51.700;6.874;2022-12-15T06:34:02;46.60;;;23.60;;
14858;SDS011;7521;51.700;6.874;2022-12-15T06:37:07;47.87;;;22.43;;
14858;SDS011;7521;51.700;6.874;2022-12-15T06:40:12;41.33;;;23.05;;
14858;SDS011;7521;51.700;6.874;2022-12-15T06:43:17;48.23;;;22.73;;
14858;SDS011;7521;51.700;6.874;2022-12-15T06:46:23;45.20;;;22.85;;
14858;SDS011;7521;51.700;6.874;2022-12-15T06:49:29;48.93;;;22.80;;
14858;SDS011;7521;51.700;6.874;2022-12-15T06:52:34;40.57;;;21.33;;
14858;SDS011;7521;51.700;6.874;2022-12-15T06:55:39;38.80;;;20.33;;
14858;SDS011;7521;51.700;6.874;2022-12-15T06:58:48;43.63;;;19.93;;
14858;SDS011;7521;51.700;6.874;2022-12-15T07:01:54;42.93;;;23.50;;
14858;SDS011;7521;51.700;6.874;2022-12-15T07:04:59;43.05;;;21.70;;
14858;SDS011;7521;51.700;6.874;2022-12-15T07:08:04;45.17;;;22.00;;
14858;SDS011;7521;51.700;6.874;2022-12-15T07:11:10;40.77;;;21.63;;
14858;SDS011;7521;51.700;6.874;2022-12-15T07:14:16;45.07;;;22.03;;
14858;SDS011;7521;51.700;6.874;2022-12-15T07:17:21;39.95;;;19.60;;
14858;SDS011;7521;51.700;6.874;2022-12-15T07:20:26;51.42;;;24.10;;
14858;SDS011;7521;51.700;6.874;2022-12-15T07:23:31;48.47;;;24.17;;
14858;SDS011;7521;51.700;6.874;2022-12-15T07:26:37;47.37;;;23.30;;
14858;SDS011;7521;51.700;6.874;2022-12-15T07:29:42;50.20;;;24.10;;
14858;SDS011;7521;51.700;6.874;2022-12-15T07:32:47;49.03;;;25.67;;
14858;SDS011;7521;51.700;6.874;2022-12-15T07:35:53;59.35;;;25.33;;
14858;SDS011;7521;51.700;6.874;2022-12-15T07:38:59;53.60;;;25.80;;
14858;SDS011;7521;51.700;6.874;2022-12-15T07:42:04;50.60;;;25.50;;
14858;SDS011;7521;51.700;6.874;2022-12-15T07:45:10;53.73;;;25.47;;
14858;SDS011;7521;51.700;6.874;2022-12-15T07:48:15;56.67;;;26.53;;
14858;SDS011;7521;51.700;6.874;2022-12-15T07:51:21;61.00;;;31.53;;
14858;SDS011;7521;51.700;6.874;2022-12-15T07:54:26;56.30;;;30.43;;
14858;SDS011;7521;51.700;6.874;2022-12-15T07:57:33;52.97;;;27.50;;
14858;SDS011;7521;51.700;6.874;2022-12-15T08:00:38;58.58;;;28.10;;
14858;SDS011;7521;51.700;6.874;2022-12-15T08:03:43;54.83;;;26.57;;
14858;SDS011;7521;51.700;6.874;2022-12-15T08:06:49;57.60;;;27.80;;
14858;SDS011;7521;51.700;6.874;2022-12-15T08:09:55;57.90;;;26.43;;
14858;SDS011;7521;51.700;6.874;2022-12-15T08:13:00;60.85;;;27.70;;
14858;SDS011;7521;51.700;6.874;2022-12-15T08:16:05;57.75;;;28.45;;
14858;SDS011;7521;51.700;6.874;2022-12-15T08:19:11;64.87;;;29.33;;
14858;SDS011;7521;51.700;6.874;2022-12-15T08:22:17;52.10;;;28.40;;
14858;SDS011;7521;51.700;6.874;2022-12-15T08:25:22;68.28;;;30.60;;
14858;SDS011;7521;51.700;6.874;2022-12-15T08:28:27;70.18;;;31.77;;
14858;SDS011;7521;51.700;6.874;2022-12-15T08:31:32;65.65;;;30.73;;
14858;SDS011;7521;51.700;6.874;2022-12-15T08:34:38;71.00;;;31.03;;
14858;SDS011;7521;51.700;6.874;2022-12-15T08:37:43;69.80;;;30.37;;
14858;SDS011;7521;51.700;6.874;2022-12-15T08:40:49;62.50;;;29.40;;
14858;SDS011;7521;51.700;6.874;2022-12-15T08:43:55;63.78;;;30.75;;
14858;SDS011;7521;51.700;6.874;2022-12-15T08:47:00;67.97;;;31.23;;
14858;SDS011;7521;51.700;6.874;2022-12-15T08:50:06;73.33;;;31.97;;
14858;SDS011;7521;51.700;6.874;2022-12-15T08:53:14;76.60;;;33.07;;
14858;SDS011;7521;51.700;6.874;2022-12-15T08:56:20;73.77;;;32.33;;
14858;SDS011;7521;51.700;6.874;2022-12-15T08:59:26;73.70;;;32.13;;
14858;SDS011;7521;51.700;6.874;2022-12-15T09:02:31;79.53;;;32.90;;
14858;SDS011;7521;51.700;6.874;2022-12-15T09:05:37;75.73;;;33.03;;
14858;SDS011;7521;51.700;6.874;2022-12-15T09:08:43;90.60;;;34.93;;
14858;SDS011;7521;51.700;6.874;2022-12-15T09:11:48;80.77;;;33.97;;
14858;SDS011;7521;51.700;6.874;2022-12-15T09:14:54;75.90;;;34.43;;
14858;SDS011;7521;51.700;6.874;2022-12-15T09:17:59;85.03;;;36.53;;
14858;SDS011;7521;51.700;6.874;2022-12-15T09:21:05;90.88;;;36.65;;
14858;SDS011;7521;51.700;6.874;2022-12-15T09:24:11;78.67;;;32.93;;
14858;SDS011;7521;51.700;6.874;2022-12-15T09:27:17;85.87;;;34.73;;
14858;SDS011;7521;51.700;6.874;2022-12-15T09:30:22;81.32;;;35.03;;
14858;SDS011;7521;51.700;6.874;2022-12-15T09:33:27;79.57;;;35.65;;
14858;SDS011;7521;51.700;6.874;2022-12-15T09:36:32;82.15;;;35.38;;
14858;SDS011;7521;51.700;6.874;2022-12-15T09:39:37;88.73;;;36.20;;
14858;SDS011;7521;51.700;6.874;2022-12-15T09:42:43;95.67;;;38.03;;
14858;SDS011;7521;51.700;6.874;2022-12-15T09:45:58;86.03;;;36.17;;
14858;SDS011;7521;51.700;6.874;2022-12-15T09:49:14;83.10;;;37.03;;
14858;SDS011;7521;51.700;6.874;2022-12-15T09:52:24;87.13;;;37.77;;
14858;SDS011;7521;51.700;6.874;2022-12-15T09:55:30;81.37;;;35.30;;
14858;SDS011;7521;51.700;6.874;2022-12-15T10:05:12;89.30;;;36.77;;
14858;SDS011;7521;51.700;6.874;2022-12-15T10:08:20;86.03;;;36.67;;
14858;SDS011;7521;51.700;6.874;2022-12-15T10:14:53;84.97;;;36.47;;
14858;SDS011;7521;51.700;6.874;2022-12-15T10:18:03;80.93;;;37.83;;
14858;SDS011;7521;51.700;6.874;2022-12-15T10:21:10;82.70;;;39.93;;
14858;SDS011;7521;51.700;6.874;2022-12-15T10:24:19;94.17;;;38.13;;
14858;SDS011;7521;51.700;6.874;2022-12-15T10:27:27;88.23;;;37.87;;
14858;SDS011;7521;51.700;6.874;2022-12-15T10:30:36;97.30;;;40.10;;
14858;SDS011;7521;51.700;6.874;2022-12-15T10:33:43;89.80;;;38.90;;
14858;SDS011;7521;51.700;6.874;2022-12-15T10:36:54;81.73;;;37.77;;
14858;SDS011;7521;51.700;6.874;2022-12-15T10:40:00;82.90;;;37.57;;
14858;SDS011;7521;51.700;6.874;2022-12-15T10:43:11;79.15;;;37.55;;
14858;SDS011;7521;51.700;6.874;2022-12-15T10:49:25;76.93;;;35.10;;
14858;SDS011;7521;51.700;6.874;2022-12-15T10:52:37;78.27;;;36.50;;
14858;SDS011;7521;51.700;6.874;2022-12-15T10:55:42;72.43;;;35.57;;
14858;SDS011;7521;51.700;6.874;2022-12-15T10:58:54;75.97;;;35.17;;
14858;SDS011;7521;51.700;6.874;2022-12-15T11:05:24;74.77;;;34.27;;
14858;SDS011;7521;51.700;6.874;2022-12-15T11:08:30;73.70;;;35.33;;
14858;SDS011;7521;51.700;6.874;2022-12-15T11:11:44;69.47;;;33.40;;
14858;SDS011;7521;51.700;6.874;2022-12-15T11:21:47;66.00;;;34.57;;
14858;SDS011;7521;51.700;6.874;2022-12-15T11:24:57;76.20;;;36.07;;
14858;SDS011;7521;51.700;6.874;2022-12-15T11:28:10;68.60;;;35.33;;
14858;SDS011;7521;51.700;6.874;2022-12-15T11:34:38;73.03;;;35.67;;
14858;SDS011;7521;51.700;6.874;2022-12-15T11:37:46;71.47;;;33.67;;
14858;SDS011;7521;51.700;6.874;2022-12-15T11:40:53;75.07;;;35.60;;
14858;SDS011;7521;51.700;6.874;2022-12-15T11:47:34;74.13;;;33.87;;
14858;SDS011;7521;51.700;6.874;2022-12-15T11:54:09;71.73;;;35.40;;
14858;SDS011;7521;51.700;6.874;2022-12-15T11:57:32;68.43;;;34.53;;
14858;SDS011;7521;51.700;6.874;2022-12-15T12:00:56;66.57;;;33.90;;
14858;SDS011;7521;51.700;6.874;2022-12-15T12:04:18;69.60;;;35.23;;
14858;SDS011;7521;51.700;6.874;2022-12-15T12:07:39;65.37;;;33.37;;
14858;SDS011;7521;51.700;6.874;2022-12-15T12:14:06;71.80;;;35.40;;
14858;SDS011;7521;51.700;6.874;2022-12-15T12:17:21;76.17;;;36.27;;
14858;SDS011;7521;51.700;6.874;2022-12-15T12:20:40;78.57;;;36.37;;
14858;SDS011;7521;51.700;6.874;2022-12-15T12:23:49;81.70;;;38.83;;
14858;SDS011;7521;51.700;6.874;2022-12-15T12:27:01;74.53;;;37.20;;
14858;SDS011;7521;51.700;6.874;2022-12-15T12:30:13;84.73;;;38.30;;
14858;SDS011;7521;51.700;6.874;2022-12-15T12:36:33;76.80;;;38.73;;
14858;SDS011;7521;51.700;6.874;2022-12-15T12:39:38;70.37;;;36.10;;
14858;SDS011;7521;51.700;6.874;2022-12-15T12:42:54;75.97;;;38.23;;
14858;SDS011;7521;51.700;6.874;2022-12-15T12:46:05;74.83;;;38.57;;
14858;SDS011;7521;51.700;6.874;2022-12-15T12:49:27;80.13;;;37.63;;
14858;SDS011;7521;51.700;6.874;2022-12-15T12:52:34;84.80;;;42.70;;
14858;SDS011;7521;51.700;6.874;2022-12-15T12:55:40;84.60;;;38.90;;
14858;SDS011;7521;51.700;6.874;2022-12-15T12:58:46;88.33;;;39.87;;
14858;SDS011;7521;51.700;6.874;2022-12-15T13:01:51;82.60;;;38.43;;
14858;SDS011;7521;51.700;6.874;2022-12-15T13:05:02;81.90;;;40.50;;
14858;SDS011;7521;51.700;6.874;2022-12-15T13:08:26;83.10;;;42.03;;
14858;SDS011;7521;51.700;6.874;2022-12-15T13:14:52;94.57;;;46.50;;
14858;SDS011;7521;51.700;6.874;2022-12-15T13:17:59;101.07;;;48.50;;
14858;SDS011;7521;51.700;6.874;2022-12-15T13:21:43;99.50;;;49.07;;
14858;SDS011;7521;51.700;6.874;2022-12-15T13:24:40;104.90;;;52.17;;
14858;SDS011;7521;51.700;6.874;2022-12-15T13:27:49;101.90;;;51.30;;
14858;SDS011;7521;51.700;6.874;2022-12-15T13:34:27;109.07;;;52.50;;
14858;SDS011;7521;51.700;6.874;2022-12-15T13:40:51;114.30;;;56.20;;
14858;SDS011;7521;51.700;6.874;2022-12-15T13:43:58;111.77;;;55.00;;
14858;SDS011;7521;51.700;6.874;2022-12-15T13:50:17;110.20;;;54.83;;
14858;SDS011;7521;51.700;6.874;2022-12-15T13:53:26;107.07;;;52.80;;
14858;SDS011;7521;51.700;6.874;2022-12-15T13:56:38;110.00;;;52.90;;
14858;SDS011;7521;51.700;6.874;2022-12-15T13:59:44;98.03;;;50.33;;
14858;SDS011;7521;51.700;6.874;2022-12-15T14:02:50;97.40;;;50.20;;
14858;SDS011;7521;51.700;6.874;2022-12-15T14:06:10;92.63;;;48.50;;
14858;SDS011;7521;51.700;6.874;2022-12-15T14:09:19;94.83;;;48.00;;
14858;SDS011;7521;51.700;6.874;2022-12-15T14:12:25;103.57;;;49.60;;
14858;SDS011;7521;51.700;6.874;2022-12-15T14:15:31;96.82;;;47.80;;
14858;SDS011;7521;51.700;6.874;2022-12-15T14:18:36;95.50;;;46.27;;
14858;SDS011;7521;51.700;6.874;2022-12-15T14:21:55;94.93;;;47.07;;
14858;SDS011;7521;51.700;6.874;2022-12-15T14:25:07;92.57;;;45.10;;
14858;SDS011;7521;51.700;6.874;2022-12-15T14:28:27;101.90;;;46.47;;
14858;SDS011;7521;51.700;6.874;2022-12-15T14:31:35;93.50;;;46.83;;
14858;SDS011;7521;51.700;6.874;2022-12-15T14:34:41;93.10;;;46.07;;
14858;SDS011;7521;51.700;6.874;2022-12-15T14:37:47;95.10;;;45.73;;
14858;SDS011;7521;51.700;6.874;2022-12-15T14:40:53;88.17;;;46.30;;
14858;SDS011;7521;51.700;6.874;2022-12-15T14:44:07;102.13;;;48.07;;
14858;SDS011;7521;51.700;6.874;2022-12-15T14:47:30;104.37;;;50.23;;
14858;SDS011;7521;51.700;6.874;2022-12-15T14:50:36;102.23;;;49.00;;
14858;SDS011;7521;51.700;6.874;2022-12-15T14:53:41;108.87;;;50.50;;
14858;SDS011;7521;51.700;6.874;2022-12-15T14:56:54;101.47;;;48.03;;
14858;SDS011;7521;51.700;6.874;2022-12-15T15:00:00;99.23;;;46.77;;
14858;SDS011;7521;51.700;6.874;2022-12-15T15:03:20;106.77;;;49.00;;
14858;SDS011;7521;51.700;6.874;2022-12-15T15:06:30;96.17;;;49.63;;
14858;SDS011;7521;51.700;6.874;2022-12-15T15:09:38;98.87;;;49.37;;
14858;SDS011;7521;51.700;6.874;2022-12-15T15:12:43;95.40;;;47.80;;
14858;SDS011;7521;51.700;6.874;2022-12-15T15:15:56;94.90;;;48.43;;
14858;SDS011;7521;51.700;6.874;2022-12-15T15:19:04;102.03;;;48.30;;
14858;SDS011;7521;51.700;6.874;2022-12-15T15:23:01;100.17;;;47.80;;
14858;SDS011;7521;51.700;6.874;2022-12-15T15:25:36;110.90;;;50.03;;
14858;SDS011;7521;51.700;6.874;2022-12-15T15:28:43;96.73;;;47.67;;
14858;SDS011;7521;51.700;6.874;2022-12-15T15:31:51;110.70;;;50.80;;
14858;SDS011;7521;51.700;6.874;2022-12-15T15:34:56;98.73;;;47.43;;
14858;SDS011;7521;51.700;6.874;2022-12-15T15:38:16;109.33;;;50.17;;
14858;SDS011;7521;51.700;6.874;2022-12-15T15:41:29;103.50;;;49.90;;
14858;SDS011;7521;51.700;6.874;2022-12-15T15:44:34;106.13;;;50.53;;
14858;SDS011;7521;51.700;6.874;2022-12-15T15:47:40;105.32;;;50.63;;
14858;SDS011;7521;51.700;6.874;2022-12-15T15:50:46;107.10;;;50.23;;
14858;SDS011;7521;51.700;6.874;2022-12-15T15:53:52;122.37;;;54.77;;
14858;SDS011;7521;51.700;6.874;2022-12-15T15:56:58;114.10;;;50.20;;
14858;SDS011;7521;51.700;6.874;2022-12-15T16:00:11;102.65;;;50.40;;
14858;SDS011;7521;51.700;6.874;2022-12-15T16:03:17;110.87;;;49.70;;
14858;SDS011;7521;51.700;6.874;2022-12-15T16:06:22;110.83;;;51.43;;
14858;SDS011;7521;51.700;6.874;2022-12-15T16:09:28;105.63;;;49.30;;
14858;SDS011;7521;51.700;6.874;2022-12-15T16:12:54;112.90;;;51.63;;
14858;SDS011;7521;51.700;6.874;2022-12-15T16:15:58;102.37;;;48.70;;
14858;SDS011;7521;51.700;6.874;2022-12-15T16:19:04;109.33;;;49.53;;
14858;SDS011;7521;51.700;6.874;2022-12-15T16:22:13;113.88;;;51.78;;
14858;SDS011;7521;51.700;6.874;2022-12-15T16:25:41;112.70;;;52.93;;
14858;SDS011;7521;51.700;6.874;2022-12-15T16:28:44;109.20;;;51.67;;
14858;SDS011;7521;51.700;6.874;2022-12-15T16:31:50;104.63;;;49.97;;
14858;SDS011;7521;51.700;6.874;2022-12-15T16:34:55;123.37;;;54.63;;
14858;SDS011;7521;51.700;6.874;2022-12-15T16:38:03;119.00;;;55.23;;
14858;SDS011;7521;51.700;6.874;2022-12-15T16:41:11;116.43;;;54.37;;
14858;SDS011;7521;51.700;6.874;2022-12-15T16:44:16;114.13;;;53.23;;
14858;SDS011;7521;51.700;6.874;2022-12-15T16:47:22;111.03;;;53.07;;
14858;SDS011;7521;51.700;6.874;2022-12-15T16:50:28;108.50;;;52.00;;
14858;SDS011;7521;51.700;6.874;2022-12-15T16:53:35;119.80;;;54.30;;
14858;SDS011;7521;51.700;6.874;2022-12-15T16:56:41;113.23;;;49.37;;
14858;SDS011;7521;51.700;6.874;2022-12-15T16:59:46;115.00;;;52.08;;
14858;SDS011;7521;51.700;6.874;2022-12-15T17:02:53;110.97;;;51.37;;
14858;SDS011;7521;51.700;6.874;2022-12-15T17:05:59;118.47;;;56.70;;
14858;SDS011;7521;51.700;6.874;2022-12-15T17:09:05;113.80;;;53.10;;
14858;SDS011;7521;51.700;6.874;2022-12-15T17:12:13;117.33;;;55.90;;
14858;SDS011;7521;51.700;6.874;2022-12-15T17:15:26;113.53;;;52.30;;
14858;SDS011;7521;51.700;6.874;2022-12-15T17:18:31;102.10;;;48.60;;
14858;SDS011;7521;51.700;6.874;2022-12-15T17:21:42;118.20;;;54.17;;
14858;SDS011;7521;51.700;6.874;2022-12-15T17:24:48;108.47;;;50.50;;
14858;SDS011;7521;51.700;6.874;2022-12-15T17:27:55;123.73;;;52.53;;
14858;SDS011;7521;51.700;6.874;2022-12-15T17:31:01;125.27;;;53.57;;
14858;SDS011;7521;51.700;6.874;2022-12-15T17:34:13;108.70;;;51.03;;
14858;SDS011;7521;51.700;6.874;2022-12-15T17:37:23;111.00;;;49.97;;
14858;SDS011;7521;51.700;6.874;2022-12-15T17:40:29;109.37;;;49.53;;
14858;SDS011;7521;51.700;6.874;2022-12-15T17:43:34;102.90;;;48.13;;
14858;SDS011;7521;51.700;6.874;2022-12-15T17:46:39;101.07;;;46.38;;
14858;SDS011;7521;51.700;6.874;2022-12-15T17:49:44;105.47;;;51.95;;
14858;SDS011;7521;51.700;6.874;2022-12-15T17:52:51;100.63;;;48.73;;
14858;SDS011;7521;51.700;6.874;2022-12-15T17:55:56;108.35;;;50.17;;
14858;SDS011;7521;51.700;6.874;2022-12-15T17:59:01;111.97;;;52.92;;
14858;SDS011;7521;51.700;6.874;2022-12-15T18:02:09;118.88;;;54.47;;
14858;SDS011;7521;51.700;6.874;2022-12-15T18:05:15;117.13;;;52.17;;
14858;SDS011;7521;51.700;6.874;2022-12-15T18:08:21;106.57;;;50.27;;
14858;SDS011;7521;51.700;6.874;2022-12-15T18:11:27;105.87;;;50.27;;
14858;SDS011;7521;51.700;6.874;2022-12-15T18:14:34;106.37;;;49.37;;
14858;SDS011;7521;51.700;6.874;2022-12-15T18:17:39;104.85;;;50.00;;
14858;SDS011;7521;51.700;6.874;2022-12-15T18:20:44;113.35;;;54.28;;
14858;SDS011;7521;51.700;6.874;2022-12-15T18:23:50;110.17;;;52.27;;
14858;SDS011;7521;51.700;6.874;2022-12-15T18:26:56;111.53;;;52.90;;
14858;SDS011;7521;51.700;6.874;2022-12-15T18:30:01;113.15;;;57.70;;
14858;SDS011;7521;51.700;6.874;2022-12-15T18:33:07;118.83;;;54.57;;
14858;SDS011;7521;51.700;6.874;2022-12-15T18:36:12;121.80;;;62.00;;
14858;SDS011;7521;51.700;6.874;2022-12-15T18:39:19;136.47;;;70.90;;
14858;SDS011;7521;51.700;6.874;2022-12-15T18:42:30;164.73;;;84.23;;
14858;SDS011;7521;51.700;6.874;2022-12-15T18:45:35;133.90;;;71.87;;
14858;SDS011;7521;51.700;6.874;2022-12-15T18:48:41;117.97;;;62.38;;
14858;SDS011;7521;51.700;6.874;2022-12-15T18:51:46;104.03;;;53.97;;
14858;SDS011;7521;51.700;6.874;2022-12-15T18:54:51;104.73;;;48.13;;
14858;SDS011;7521;51.700;6.874;2022-12-15T18:57:58;100.60;;;45.17;;
14858;SDS011;7521;51.700;6.874;2022-12-15T19:01:05;86.23;;;41.73;;
14858;SDS011;7521;51.700;6.874;2022-12-15T19:04:10;83.93;;;41.03;;
14858;SDS011;7521;51.700;6.874;2022-12-15T19:07:15;87.50;;;41.23;;
14858;SDS011;7521;51.700;6.874;2022-12-15T19:10:21;88.30;;;39.95;;
14858;SDS011;7521;51.700;6.874;2022-12-15T19:13:30;84.13;;;38.50;;
14858;SDS011;7521;51.700;6.874;2022-12-15T19:16:35;75.87;;;37.87;;
14858;SDS011;7521;51.700;6.874;2022-12-15T19:19:59;82.53;;;37.77;;
14858;SDS011;7521;51.700;6.874;2022-12-15T19:23:23;83.57;;;38.93;;
14858;SDS011;7521;51.700;6.874;2022-12-15T19:26:28;90.50;;;40.27;;
14858;SDS011;7521;51.700;6.874;2022-12-15T19:29:34;84.60;;;41.43;;
14858;SDS011;7521;51.700;6.874;2022-12-15T19:32:39;89.00;;;39.70;;
14858;SDS011;7521;51.700;6.874;2022-12-15T19:35:45;96.55;;;44.13;;
14858;SDS011;7521;51.700;6.874;2022-12-15T19:38:51;87.23;;;42.23;;
14858;SDS011;7521;51.700;6.874;2022-12-15T19:41:58;85.30;;;40.17;;
14858;SDS011;7521;51.700;6.874;2022-12-15T19:45:13;82.63;;;40.40;;
14858;SDS011;7521;51.700;6.874;2022-12-15T19:48:19;100.30;;;44.03;;
14858;SDS011;7521;51.700;6.874;2022-12-15T19:51:24;80.67;;;39.90;;